Time;durP1;ratioP1;P1;durP2;ratioP2;P2;SDS_P1;SDS_P2;PMS_P1;PMS_P2;Temp;Humidity;BMP_temperature;BMP_pressure;BME280_temperature;BME280_humidity;BME280_pressure;Samples;Min_cycle;Max_cycle;Signal;HPM_P1;HPM_P2
2022/12/02 00:00:49;;;;;;;16.90;15.20;;;21.70;89.20;;;;;;6206687;28;89108;-68
2022/12/02 00:03:51;;;;;;;18.90;16.55;;;21.70;89.20;;;;;;6194637;28;90186;-68
2022/12/02 00:06:55;;;;;;;16.83;15.13;;;21.70;89.20;;;;;;6205614;28;89629;-68
2022/12/02 00:09:57;;;;;;;16.88;15.18;;;21.70;89.20;;;;;;6208914;28;89141;-68
2022/12/02 00:13:15;;;;;;;16.98;15.27;;;21.70;89.20;;;;;;6201469;28;89467;-68
2022/12/02 00:16:22;;;;;;;17.13;15.32;;;21.70;89.20;;;;;;6205467;28;88618;-67
2022/12/02 00:19:24;;;;;;;16.63;14.93;;;21.70;89.10;;;;;;6213532;28;89116;-67
2022/12/02 00:22:26;;;;;;;16.75;15.05;;;21.70;89.10;;;;;;6195274;28;89139;-68
2022/12/02 00:25:28;;;;;;;16.20;14.50;;;21.70;89.10;;;;;;6204771;28;89980;-68
2022/12/02 00:28:31;;;;;;;17.05;15.35;;;21.70;89.10;;;;;;6205017;28;89137;-68
2022/12/02 00:31:33;;;;;;;16.85;15.15;;;21.60;89.10;;;;;;6202844;28;89345;-68
2022/12/02 00:34:35;;;;;;;17.05;15.27;;;21.70;89.00;;;;;;6196054;28;88003;-68
2022/12/02 00:37:37;;;;;;;16.38;14.68;;;21.60;89.00;;;;;;6200714;28;89060;-68
2022/12/02 00:40:39;;;;;;;17.35;15.55;;;21.60;89.00;;;;;;6202008;28;90789;-68
2022/12/02 00:47:14;;;;;;;17.88;15.85;;;21.60;89.10;;;;;;6126453;28;87529;-67
2022/12/02 00:50:16;;;;;;;16.73;15.02;;;21.60;89.00;;;;;;6195517;28;90664;-68
2022/12/02 00:53:18;;;;;;;16.75;15.05;;;21.60;89.00;;;;;;6196448;28;89232;-68
2022/12/02 00:56:20;;;;;;;16.80;14.93;;;21.60;89.00;;;;;;6194037;28;90047;-67
2022/12/02 00:59:23;;;;;;;16.42;14.77;;;21.60;88.90;;;;;;6208783;28;89344;-68
2022/12/02 01:02:25;;;;;;;17.20;15.30;;;21.60;88.90;;;;;;6190067;28;89499;-68
2022/12/02 01:05:27;;;;;;;16.85;15.15;;;21.60;88.90;;;;;;6198383;28;89204;-68
2022/12/02 01:08:30;;;;;;;16.95;15.15;;;21.50;88.90;;;;;;6199866;28;89141;-67
2022/12/02 01:11:31;;;;;;;16.80;15.02;;;21.50;88.80;;;;;;6200680;28;89246;-68
2022/12/02 01:14:35;;;;;;;17.02;15.32;;;21.50;88.80;;;;;;6204330;28;89181;-67
2022/12/02 01:17:37;;;;;;;18.63;16.05;;;21.50;88.90;;;;;;6191344;28;88510;-67
2022/12/02 01:20:39;;;;;;;16.23;14.52;;;21.50;88.80;;;;;;6194062;28;88223;-68
2022/12/02 01:23:41;;;;;;;16.75;15.05;;;21.50;88.80;;;;;;6205383;28;89150;-68
2022/12/02 01:26:43;;;;;;;17.13;15.43;;;21.50;88.80;;;;;;6203393;28;89995;-68
2022/12/02 01:29:47;;;;;;;16.73;14.98;;;21.40;88.80;;;;;;6191572;28;89940;-67
2022/12/02 01:32:49;;;;;;;16.33;14.63;;;21.40;88.80;;;;;;6203421;28;89274;-68
2022/12/02 01:35:50;;;;;;;15.80;14.20;;;21.40;88.80;;;;;;6198332;28;89731;-67
2022/12/02 01:38:52;;;;;;;16.50;14.68;;;21.40;88.80;;;;;;6182813;28;89019;-67
2022/12/02 01:41:55;;;;;;;16.75;15.02;;;21.40;88.70;;;;;;6204666;28;89633;-68
2022/12/02 01:44:58;;;;;;;16.35;14.65;;;21.50;88.70;;;;;;6195522;28;89227;-67
2022/12/02 01:48:01;;;;;;;16.55;14.85;;;21.40;88.60;;;;;;6199036;28;88482;-67
2022/12/02 01:51:04;;;;;;;16.25;14.65;;;21.40;88.60;;;;;;6203876;28;88685;-68
2022/12/02 01:54:06;;;;;;;16.23;14.60;;;21.40;88.60;;;;;;6202054;28;88013;-67
2022/12/02 01:57:12;;;;;;;15.95;14.35;;;21.40;88.70;;;;;;6184902;28;90071;-68
2022/12/02 02:00:17;;;;;;;17.17;15.27;;;21.40;88.80;;;;;;6187267;28;88448;-68
2022/12/02 02:03:19;;;;;;;15.90;14.25;;;21.40;88.80;;;;;;6204009;28;89831;-67
2022/12/02 02:06:22;;;;;;;16.58;14.88;;;21.40;88.90;;;;;;6202760;28;89221;-67
2022/12/02 02:09:24;;;;;;;16.50;14.80;;;21.30;88.70;;;;;;6197437;28;89203;-68
2022/12/02 02:12:27;;;;;;;16.13;14.40;;;21.30;88.70;;;;;;6200516;28;88089;-68
2022/12/02 02:15:30;;;;;;;17.02;15.23;;;21.30;88.70;;;;;;6203166;28;89155;-67
2022/12/02 02:18:33;;;;;;;15.77;14.18;;;21.30;88.80;;;;;;6194185;28;88415;-68
2022/12/02 02:21:39;;;;;;;16.67;14.98;;;21.30;88.70;;;;;;6202817;28;87961;-68
2022/12/02 02:24:42;;;;;;;16.17;14.48;;;21.30;88.50;;;;;;6198519;28;89044;-67
2022/12/02 02:27:52;;;;;;;16.52;14.73;;;21.30;88.60;;;;;;6209385;28;90170;-68
2022/12/02 02:30:56;;;;;;;16.10;14.43;;;21.30;88.50;;;;;;6202852;28;89189;-68
2022/12/02 02:33:58;;;;;;;16.10;14.40;;;21.30;88.50;;;;;;6193162;28;89484;-68
2022/12/02 02:37:00;;;;;;;17.02;15.05;;;21.30;88.60;;;;;;6181169;28;89516;-67
2022/12/02 02:40:05;;;;;;;18.98;16.63;;;21.30;88.00;;;;;;6193085;28;89864;-68
2022/12/02 02:43:07;;;;;;;18.38;16.38;;;21.20;85.60;;;;;;6204486;28;87983;-68
2022/12/02 02:46:10;;;;;;;18.38;16.38;;;21.30;85.30;;;;;;6198979;28;91953;-68
2022/12/02 02:49:12;;;;;;;17.60;15.77;;;21.20;86.10;;;;;;6193865;28;88877;-68
2022/12/02 02:52:14;;;;;;;19.00;15.73;;;21.20;86.60;;;;;;6199839;28;88787;-67
2022/12/02 02:55:21;;;;;;;17.45;15.55;;;21.20;86.80;;;;;;6199343;28;89477;-68
2022/12/02 02:58:25;;;;;;;16.40;14.70;;;21.20;86.90;;;;;;6212434;28;90195;-68
2022/12/02 03:01:31;;;;;;;16.83;15.05;;;21.20;87.10;;;;;;6200899;28;89120;-68
2022/12/02 03:04:33;;;;;;;16.67;14.98;;;21.20;87.20;;;;;;6206093;28;89639;-67
2022/12/02 03:07:36;;;;;;;16.88;15.05;;;21.20;87.30;;;;;;6202460;28;89554;-68
2022/12/02 03:10:40;;;;;;;17.30;15.25;;;21.20;87.30;;;;;;6198531;28;89144;-68
2022/12/02 03:13:44;;;;;;;16.27;14.40;;;21.20;87.40;;;;;;6190607;28;89304;-68
2022/12/02 03:16:47;;;;;;;17.25;15.35;;;21.20;87.50;;;;;;6204684;28;92606;-68
2022/12/02 03:19:49;;;;;;;17.13;15.40;;;21.10;87.50;;;;;;6218323;28;88807;-68
2022/12/02 03:22:51;;;;;;;17.45;15.55;;;21.10;87.50;;;;;;6212898;28;89586;-68
2022/12/02 03:25:55;;;;;;;16.63;14.82;;;21.20;87.60;;;;;;6199393;28;89197;-68
2022/12/02 03:28:58;;;;;;;17.35;15.55;;;21.10;87.70;;;;;;6191099;28;88077;-68
2022/12/02 03:32:01;;;;;;;17.70;15.80;;;21.10;87.70;;;;;;6191981;28;89183;-68
2022/12/02 03:35:03;;;;;;;16.52;14.65;;;21.10;87.70;;;;;;6204558;28;89162;-68
2022/12/02 03:38:05;;;;;;;17.23;15.25;;;21.10;87.80;;;;;;6192137;28;90172;-68
2022/12/02 03:41:10;;;;;;;18.80;16.23;;;21.10;87.90;;;;;;6204039;28;89501;-67
2022/12/02 03:44:12;;;;;;;17.75;15.93;;;21.10;87.80;;;;;;6194326;28;89384;-68
2022/12/02 03:47:14;;;;;;;17.63;15.73;;;21.10;87.80;;;;;;6201290;28;89861;-68
2022/12/02 03:50:17;;;;;;;17.70;15.88;;;21.10;87.80;;;;;;6193844;28;88461;-68
2022/12/02 03:53:19;;;;;;;18.63;16.63;;;21.10;87.70;;;;;;6205319;28;88422;-68
2022/12/02 03:56:24;;;;;;;18.60;16.60;;;21.10;87.70;;;;;;6204715;28;89200;-68
2022/12/02 03:59:28;;;;;;;18.38;16.40;;;21.10;87.70;;;;;;6195941;28;88944;-68
2022/12/02 04:02:30;;;;;;;18.55;16.55;;;21.00;87.70;;;;;;6206320;28;89285;-68
2022/12/02 04:05:32;;;;;;;18.13;16.10;;;21.00;87.70;;;;;;6195230;28;89205;-68
2022/12/02 04:08:34;;;;;;;18.58;16.60;;;21.00;87.70;;;;;;6204834;28;88958;-68
2022/12/02 04:11:37;;;;;;;18.42;16.42;;;21.00;87.80;;;;;;6205419;28;89220;-68
2022/12/02 04:14:39;;;;;;;18.13;16.23;;;21.00;87.80;;;;;;6196723;28;89108;-68
2022/12/02 04:17:41;;;;;;;18.90;16.90;;;21.00;87.80;;;;;;6203614;28;89155;-67
2022/12/02 04:20:44;;;;;;;18.70;16.77;;;21.00;88.00;;;;;;6200966;28;88600;-68
2022/12/02 04:23:46;;;;;;;19.33;16.67;;;21.00;88.00;;;;;;6196140;28;89336;-67
2022/12/02 04:26:49;;;;;;;19.08;17.02;;;21.00;87.90;;;;;;6216234;28;89220;-68
2022/12/02 04:29:51;;;;;;;19.33;17.27;;;21.00;87.80;;;;;;6204569;28;90030;-67
2022/12/02 04:32:53;;;;;;;19.02;17.10;;;21.00;87.70;;;;;;6204064;28;89606;-68
2022/12/02 04:35:55;;;;;;;18.73;16.67;;;21.00;87.50;;;;;;6205954;28;89510;-67
2022/12/02 04:38:57;;;;;;;18.52;16.58;;;21.00;87.40;;;;;;6201925;28;89482;-68
2022/12/02 04:42:01;;;;;;;18.08;16.17;;;21.00;87.50;;;;;;6198491;28;89656;-68
2022/12/02 04:45:04;;;;;;;18.85;16.00;;;21.00;87.50;;;;;;6194812;28;89107;-67
2022/12/02 04:48:06;;;;;;;18.88;16.77;;;21.00;87.50;;;;;;6211199;28;89447;-68
2022/12/02 04:51:08;;;;;;;19.05;17.05;;;21.00;87.50;;;;;;6203218;28;88491;-67
2022/12/02 04:54:10;;;;;;;19.15;17.15;;;21.00;87.40;;;;;;6203748;28;89165;-68
2022/12/02 04:57:14;;;;;;;19.17;17.17;;;21.00;87.30;;;;;;6202108;28;89206;-68
2022/12/02 05:00:16;;;;;;;18.77;16.77;;;21.00;87.30;;;;;;6191208;28;90107;-68
2022/12/02 05:03:18;;;;;;;19.05;17.05;;;21.00;87.30;;;;;;6204215;28;89213;-67
2022/12/02 05:06:21;;;;;;;22.17;17.33;;;21.00;87.30;;;;;;6202929;28;90741;-68
2022/12/02 05:09:22;;;;;;;20.08;17.98;;;21.10;87.50;;;;;;6198340;28;89639;-68
2022/12/02 05:12:26;;;;;;;18.10;16.27;;;21.00;87.40;;;;;;6192209;28;90517;-68
2022/12/02 05:15:28;;;;;;;18.30;16.40;;;21.00;88.30;;;;;;6199263;28;88032;-68
2022/12/02 05:18:30;;;;;;;18.83;16.83;;;21.00;87.40;;;;;;6203373;28;89137;-68
2022/12/02 05:21:32;;;;;;;18.17;16.02;;;21.00;87.40;;;;;;6204819;28;88514;-68
2022/12/02 05:24:34;;;;;;;18.00;16.10;;;21.00;87.40;;;;;;6192844;28;87980;-67
2022/12/02 05:27:37;;;;;;;17.50;15.70;;;21.10;87.40;;;;;;6205007;28;88257;-68
2022/12/02 05:30:39;;;;;;;18.42;16.45;;;21.00;87.30;;;;;;6204137;28;90288;-68
2022/12/02 05:33:41;;;;;;;17.40;15.60;;;21.10;87.40;;;;;;6203044;28;89348;-68
2022/12/02 05:36:43;;;;;;;18.52;16.60;;;21.00;87.30;;;;;;6204869;28;89253;-68
2022/12/02 05:39:45;;;;;;;17.80;15.90;;;21.10;87.30;;;;;;6202147;28;89315;-68
2022/12/02 05:42:49;;;;;;;17.95;16.05;;;21.10;87.30;;;;;;6190451;28;90649;-68
2022/12/02 05:45:52;;;;;;;17.23;15.43;;;21.10;87.30;;;;;;6204077;28;89079;-68
2022/12/02 05:48:54;;;;;;;19.20;16.58;;;21.10;87.30;;;;;;6203843;28;89305;-67
2022/12/02 05:51:58;;;;;;;17.52;15.73;;;21.10;87.20;;;;;;6191524;28;88623;-68
2022/12/02 05:55:07;;;;;;;17.60;15.75;;;21.10;87.20;;;;;;6199857;28;89172;-68
2022/12/02 05:58:13;;;;;;;17.73;15.80;;;21.20;87.20;;;;;;6192908;28;89636;-68
2022/12/02 06:01:30;;;;;;;18.70;16.40;;;21.20;87.20;;;;;;6203051;28;90107;-68
2022/12/02 06:04:33;;;;;;;17.30;15.35;;;21.20;87.20;;;;;;6190883;28;89393;-68
2022/12/02 06:07:36;;;;;;;17.42;15.60;;;21.20;87.10;;;;;;6205264;28;89553;-68
2022/12/02 06:10:38;;;;;;;17.42;15.63;;;21.20;87.00;;;;;;6200336;28;89217;-68
2022/12/02 06:13:43;;;;;;;17.85;15.95;;;21.20;87.00;;;;;;6193968;28;89511;-68
2022/12/02 06:16:48;;;;;;;19.10;15.98;;;21.20;87.00;;;;;;6201609;28;89298;-67
2022/12/02 06:19:53;;;;;;;16.98;15.10;;;21.20;86.90;;;;;;6193221;28;89173;-68
2022/12/02 06:22:56;;;;;;;17.45;15.25;;;21.20;86.80;;;;;;6205214;28;88310;-68
2022/12/02 06:25:59;;;;;;;17.35;15.55;;;21.30;86.80;;;;;;6197510;28;89234;-68
2022/12/02 06:29:04;;;;;;;17.75;15.68;;;21.30;86.80;;;;;;6196574;28;87932;-67
2022/12/02 06:32:13;;;;;;;17.17;15.38;;;21.30;86.70;;;;;;6200165;28;90000;-68
2022/12/02 06:35:22;;;;;;;16.95;15.15;;;21.30;86.60;;;;;;6200604;28;89327;-67
2022/12/02 06:38:29;;;;;;;16.75;15.05;;;21.30;86.60;;;;;;6208205;28;89295;-67
2022/12/02 06:41:33;;;;;;;17.85;14.60;;;21.40;87.00;;;;;;6200008;28;89057;-68
2022/12/02 06:48:02;;;;;;;16.50;14.70;;;21.50;87.10;;;;;;6189457;28;87830;-68
2022/12/02 06:51:15;;;;;;;16.65;14.68;;;21.50;87.10;;;;;;6200804;28;89559;-67
2022/12/02 06:54:21;;;;;;;16.48;14.77;;;21.60;87.00;;;;;;6197705;28;89307;-67
2022/12/02 06:57:23;;;;;;;16.52;14.38;;;21.60;87.10;;;;;;6191824;28;88166;-67
2022/12/02 07:00:26;;;;;;;16.77;14.75;;;21.60;87.10;;;;;;6194194;28;90854;-67
2022/12/02 07:03:33;;;;;;;16.08;14.35;;;21.60;87.10;;;;;;6193544;28;90148;-66
2022/12/02 07:06:38;;;;;;;16.08;14.40;;;21.60;86.90;;;;;;6201010;28;89192;-67
2022/12/02 07:09:42;;;;;;;15.95;14.35;;;21.60;86.90;;;;;;6197850;28;89096;-67
2022/12/02 07:12:45;;;;;;;16.85;14.52;;;21.60;86.90;;;;;;6193558;28;89027;-67
2022/12/02 07:15:48;;;;;;;15.55;13.90;;;21.60;86.80;;;;;;6194299;28;88344;-68
2022/12/02 07:18:50;;;;;;;17.02;15.20;;;21.70;86.90;;;;;;6207059;28;89169;-68
2022/12/02 07:21:52;;;;;;;15.95;14.25;;;21.70;86.90;;;;;;6201922;28;88195;-69
2022/12/02 07:24:58;;;;;;;15.90;14.25;;;21.70;86.70;;;;;;6197638;28;88439;-68
2022/12/02 07:28:01;;;;;;;15.52;13.82;;;21.70;86.70;;;;;;6197605;28;89365;-68
2022/12/02 07:31:13;;;;;;;16.25;13.98;;;21.70;86.60;;;;;;6202265;28;89559;-68
2022/12/02 07:34:15;;;;;;;15.48;13.80;;;21.70;87.50;;;;;;6188977;28;90474;-68
2022/12/02 07:37:17;;;;;;;15.65;13.95;;;21.70;86.50;;;;;;6194899;28;89401;-68
2022/12/02 07:40:20;;;;;;;14.63;13.05;;;21.70;86.60;;;;;;6203624;28;89007;-68
2022/12/02 07:43:22;;;;;;;15.57;13.98;;;21.70;86.40;;;;;;6195112;28;89346;-68
2022/12/02 07:46:26;;;;;;;14.40;12.90;;;21.70;86.40;;;;;;6203819;28;88119;-68
2022/12/02 07:49:28;;;;;;;14.60;13.10;;;21.70;86.40;;;;;;6193514;28;89159;-67
2022/12/02 07:52:30;;;;;;;14.65;13.15;;;21.70;86.40;;;;;;6205666;28;89354;-68
2022/12/02 07:55:32;;;;;;;15.25;13.65;;;21.70;86.40;;;;;;6206972;28;88498;-68
2022/12/02 07:58:34;;;;;;;14.52;13.05;;;21.70;86.40;;;;;;6204205;28;89197;-68
2022/12/02 08:01:37;;;;;;;15.25;13.48;;;21.70;86.40;;;;;;6194713;28;89403;-68
2022/12/02 08:04:39;;;;;;;15.10;13.05;;;21.70;86.30;;;;;;6191774;28;90850;-68
2022/12/02 08:07:42;;;;;;;15.15;13.55;;;21.70;86.30;;;;;;6191819;28;89240;-68
2022/12/02 08:10:44;;;;;;;14.40;13.00;;;21.70;86.40;;;;;;6189268;28;89108;-68
2022/12/02 08:13:46;;;;;;;14.60;13.00;;;21.70;86.20;;;;;;6203393;28;89256;-68
2022/12/02 08:16:50;;;;;;;14.52;13.02;;;21.70;86.40;;;;;;6197160;28;89286;-68
2022/12/02 08:19:52;;;;;;;15.52;12.82;;;21.70;86.40;;;;;;6190900;28;89066;-69
2022/12/02 08:22:54;;;;;;;14.32;12.77;;;21.80;86.40;;;;;;6195121;28;89161;-68
2022/12/02 08:25:56;;;;;;;15.30;12.98;;;21.80;86.40;;;;;;6192890;28;88783;-69
2022/12/02 08:28:58;;;;;;;14.32;12.82;;;21.80;86.40;;;;;;6203780;28;89544;-68
2022/12/02 08:32:01;;;;;;;14.15;12.23;;;21.80;86.40;;;;;;6196884;28;89112;-68
2022/12/02 08:35:04;;;;;;;13.55;12.13;;;21.80;86.40;;;;;;6199753;28;90296;-68
2022/12/02 08:38:06;;;;;;;13.45;11.80;;;21.80;86.40;;;;;;6194689;28;89241;-68
2022/12/02 08:41:09;;;;;;;14.73;12.85;;;21.80;86.40;;;;;;6203736;28;89477;-68
2022/12/02 08:44:11;;;;;;;14.52;12.85;;;21.80;86.40;;;;;;6191855;28;89892;-68
2022/12/02 08:47:15;;;;;;;14.52;12.73;;;21.80;86.40;;;;;;6193460;28;89355;-68
2022/12/02 08:50:17;;;;;;;13.43;12.02;;;21.80;86.40;;;;;;6197936;28;89119;-69
2022/12/02 08:53:19;;;;;;;13.88;11.98;;;21.80;86.40;;;;;;6185870;28;89997;-68
2022/12/02 08:56:21;;;;;;;15.30;12.43;;;21.80;86.40;;;;;;6194513;28;88754;-69
2022/12/02 08:59:23;;;;;;;12.50;11.20;;;21.90;86.50;;;;;;6203580;28;88102;-68
2022/12/02 09:02:27;;;;;;;12.75;11.45;;;21.90;86.50;;;;;;6196322;28;90283;-68
2022/12/02 09:05:29;;;;;;;13.07;11.77;;;21.90;86.40;;;;;;6202304;28;90170;-69
2022/12/02 09:08:31;;;;;;;13.20;11.90;;;21.90;86.40;;;;;;6200844;28;90430;-69
2022/12/02 09:11:33;;;;;;;13.48;12.05;;;21.90;86.40;;;;;;6180722;28;89338;-68
2022/12/02 09:14:35;;;;;;;13.23;11.80;;;21.90;86.30;;;;;;6190099;28;89128;-68
2022/12/02 09:17:39;;;;;;;13.05;11.75;;;21.90;86.40;;;;;;6216378;28;89075;-68
2022/12/02 09:20:41;;;;;;;13.27;11.60;;;21.90;86.40;;;;;;6198423;28;88033;-69
2022/12/02 09:23:43;;;;;;;13.48;12.07;;;21.90;86.20;;;;;;6201403;28;88965;-68
2022/12/02 09:26:45;;;;;;;13.05;11.65;;;21.90;86.30;;;;;;6208488;28;88411;-69
2022/12/02 09:29:47;;;;;;;12.55;11.32;;;22.00;86.40;;;;;;6200136;28;89326;-68
2022/12/02 09:32:50;;;;;;;12.52;11.13;;;22.00;86.20;;;;;;6191493;28;89451;-69
2022/12/02 09:35:52;;;;;;;12.98;11.38;;;22.00;86.20;;;;;;6203091;28;90384;-68
2022/12/02 09:38:54;;;;;;;13.02;11.68;;;22.00;86.20;;;;;;6192368;28;89500;-68
2022/12/02 09:41:56;;;;;;;12.88;11.57;;;22.00;86.10;;;;;;6203499;28;88350;-69
2022/12/02 09:44:59;;;;;;;12.27;11.00;;;22.00;86.10;;;;;;6195619;28;89441;-68
2022/12/02 09:48:02;;;;;;;13.23;11.82;;;22.00;86.10;;;;;;6187240;28;89318;-68
2022/12/02 09:51:05;;;;;;;12.68;11.07;;;22.00;86.00;;;;;;6202953;28;89335;-69
2022/12/02 09:54:07;;;;;;;12.35;10.88;;;22.00;86.00;;;;;;6192380;28;89673;-68
2022/12/02 09:57:11;;;;;;;12.77;11.10;;;22.00;85.90;;;;;;6204725;28;87496;-69
2022/12/02 10:00:17;;;;;;;12.15;10.95;;;22.00;85.90;;;;;;6197303;28;89509;-68
2022/12/02 10:03:24;;;;;;;12.50;11.20;;;22.00;85.90;;;;;;6179298;28;89581;-67
2022/12/02 10:06:28;;;;;;;12.10;10.90;;;22.00;85.90;;;;;;6192665;28;89128;-69
2022/12/02 10:09:31;;;;;;;12.30;11.07;;;22.00;85.80;;;;;;6201636;28;89233;-69
2022/12/02 10:12:33;;;;;;;12.60;10.95;;;22.00;85.70;;;;;;6190410;28;88154;-69
2022/12/02 10:15:35;;;;;;;12.40;11.10;;;22.10;85.80;;;;;;6216600;28;89535;-68
2022/12/02 10:18:40;;;;;;;11.88;10.63;;;22.10;85.70;;;;;;6203498;28;89276;-69
2022/12/02 10:21:42;;;;;;;11.60;10.40;;;22.10;85.70;;;;;;6217463;28;89499;-69
2022/12/02 10:24:44;;;;;;;12.50;11.10;;;22.10;86.60;;;;;;6207398;28;89160;-69
2022/12/02 10:27:46;;;;;;;11.65;10.45;;;22.10;85.70;;;;;;6191247;28;88616;-67
2022/12/02 10:30:54;;;;;;;11.52;10.30;;;22.10;85.70;;;;;;6204311;28;88311;-68
2022/12/02 10:34:01;;;;;;;12.27;10.85;;;22.10;85.70;;;;;;6192173;28;88517;-68
2022/12/02 10:37:18;;;;;;;11.30;10.20;;;22.10;85.70;;;;;;6195707;28;90264;-68
2022/12/02 10:40:22;;;;;;;12.02;10.65;;;22.10;85.60;;;;;;6186854;28;89163;-68
2022/12/02 10:43:24;;;;;;;11.32;10.23;;;22.10;85.50;;;;;;6194067;28;89104;-69
2022/12/02 10:46:26;;;;;;;11.20;10.10;;;22.10;85.50;;;;;;6195717;28;91252;-69
2022/12/02 10:49:33;;;;;;;11.48;10.15;;;22.10;85.40;;;;;;6194666;28;89383;-69
2022/12/02 10:52:44;;;;;;;12.73;10.63;;;22.20;85.40;;;;;;6199928;28;89143;-69
2022/12/02 10:55:47;;;;;;;10.68;9.57;;;22.10;85.50;;;;;;6199897;28;89031;-69
2022/12/02 10:58:50;;;;;;;11.32;10.10;;;22.20;85.40;;;;;;6197170;28;88793;-68
2022/12/02 11:01:52;;;;;;;12.02;10.73;;;22.10;85.40;;;;;;6190720;28;89022;-69
2022/12/02 11:04:57;;;;;;;11.60;10.20;;;22.10;85.30;;;;;;6195392;28;89292;-67
2022/12/02 11:08:01;;;;;;;11.15;9.90;;;22.20;85.20;;;;;;6207467;28;90214;-68
2022/12/02 11:11:11;;;;;;;11.50;10.30;;;22.20;85.20;;;;;;6199795;28;90046;-67
2022/12/02 11:14:13;;;;;;;10.93;9.80;;;22.20;85.50;;;;;;6200010;28;89640;-67
2022/12/02 11:17:15;;;;;;;12.48;9.95;;;22.20;85.60;;;;;;6201990;28;89148;-67
2022/12/02 11:20:33;;;;;;;11.07;9.50;;;22.20;85.80;;;;;;6195487;28;87997;-67
2022/12/02 11:23:35;;;;;;;10.50;9.40;;;22.30;85.90;;;;;;6195885;28;89261;-67
2022/12/02 11:27:09;;;;;;;11.38;10.27;;;22.30;85.80;;;;;;6210275;28;89252;-67
2022/12/02 11:30:36;;;;;;;12.13;10.40;;;22.30;85.70;;;;;;6201579;28;88494;-67
2022/12/02 11:34:02;;;;;;;11.15;10.05;;;22.30;85.50;;;;;;6202488;28;89247;-66
2022/12/02 11:37:40;;;;;;;10.88;9.75;;;22.30;85.40;;;;;;6193358;28;88058;-67
2022/12/02 11:40:58;;;;;;;11.52;10.27;;;22.30;85.40;;;;;;6198918;28;89976;-67
2022/12/02 11:44:09;;;;;;;11.43;10.23;;;22.30;85.40;;;;;;6197912;28;89118;-68
2022/12/02 11:47:24;;;;;;;10.48;9.38;;;22.30;85.40;;;;;;6193833;28;89186;-67
2022/12/02 11:50:28;;;;;;;11.25;9.82;;;22.30;85.40;;;;;;6194905;28;89198;-67
2022/12/02 11:53:32;;;;;;;11.07;9.85;;;22.30;85.50;;;;;;6207517;28;89603;-67
2022/12/02 11:56:38;;;;;;;12.20;10.02;;;22.30;85.40;;;;;;6190119;28;90390;-67
2022/12/02 11:59:41;;;;;;;11.50;9.23;;;22.30;85.40;;;;;;6191399;28;89686;-67
2022/12/02 12:02:43;;;;;;;10.60;9.43;;;22.30;85.40;;;;;;6200415;28;88449;-67
2022/12/02 12:06:08;;;;;;;11.93;10.00;;;22.30;85.40;;;;;;6193453;28;89311;-67
2022/12/02 12:09:12;;;;;;;11.60;9.65;;;22.30;85.40;;;;;;6191002;28;89559;-67
2022/12/02 12:12:16;;;;;;;10.85;9.75;;;22.30;85.40;;;;;;6197812;28;90139;-67
2022/12/02 12:15:18;;;;;;;11.30;9.50;;;22.30;85.40;;;;;;6192734;28;89250;-68
2022/12/02 12:18:45;;;;;;;10.70;9.60;;;22.30;85.30;;;;;;6213267;28;91394;-67
2022/12/02 12:21:49;;;;;;;10.35;9.35;;;22.30;85.20;;;;;;6206946;28;89261;-67
2022/12/02 12:24:52;;;;;;;10.32;9.27;;;22.30;85.30;;;;;;6207642;28;89058;-68
2022/12/02 12:27:54;;;;;;;10.70;9.60;;;22.30;85.30;;;;;;6205752;28;89282;-67
2022/12/02 12:30:56;;;;;;;10.38;9.35;;;22.30;85.20;;;;;;6196341;28;89137;-67
2022/12/02 12:33:58;;;;;;;12.50;9.90;;;22.30;85.20;;;;;;6198430;28;88668;-67
2022/12/02 12:37:01;;;;;;;11.35;9.68;;;22.30;84.90;;;;;;6198600;28;88056;-67
2022/12/02 12:40:05;;;;;;;9.90;8.90;;;22.30;85.70;;;;;;6195760;28;88155;-67
2022/12/02 12:43:07;;;;;;;10.52;8.82;;;22.40;85.50;;;;;;6201655;28;90197;-67
2022/12/02 12:46:09;;;;;;;10.65;9.57;;;22.40;85.50;;;;;;6200883;28;89356;-67
2022/12/02 12:49:11;;;;;;;11.23;9.40;;;22.40;85.40;;;;;;6198784;28;90095;-67
2022/12/02 12:52:13;;;;;;;10.43;9.32;;;22.40;85.40;;;;;;6205105;28;89104;-67
2022/12/02 12:55:16;;;;;;;10.15;9.15;;;22.40;85.40;;;;;;6204583;28;88199;-68
2022/12/02 12:58:18;;;;;;;10.13;9.13;;;22.40;85.40;;;;;;6203762;28;89055;-67
2022/12/02 13:01:20;;;;;;;10.30;9.20;;;22.40;85.20;;;;;;6181196;28;89429;-67
2022/12/02 13:04:22;;;;;;;10.55;8.90;;;22.40;85.20;;;;;;6181827;28;88722;-67
2022/12/02 13:07:24;;;;;;;9.90;8.90;;;22.40;85.20;;;;;;6194216;28;87975;-67
2022/12/02 13:10:28;;;;;;;10.02;9.02;;;22.40;85.20;;;;;;6204554;28;88018;-67
2022/12/02 13:13:30;;;;;;;10.43;9.43;;;22.40;85.10;;;;;;6193062;28;90208;-67
2022/12/02 13:16:32;;;;;;;10.18;9.18;;;22.50;85.10;;;;;;6196980;28;90714;-67
2022/12/02 13:19:34;;;;;;;9.50;8.52;;;22.50;85.20;;;;;;6199575;28;89247;-66
2022/12/02 13:22:36;;;;;;;9.68;8.68;;;22.50;85.00;;;;;;6198104;28;89409;-67
2022/12/02 13:25:40;;;;;;;10.30;8.52;;;22.50;85.00;;;;;;6210744;28;89197;-67
2022/12/02 13:28:42;;;;;;;9.55;8.65;;;22.50;85.00;;;;;;6206003;28;89382;-67
2022/12/02 13:31:44;;;;;;;9.82;8.82;;;22.50;85.00;;;;;;6205000;28;89015;-67
2022/12/02 13:34:46;;;;;;;10.07;9.13;;;22.40;84.90;;;;;;6193254;28;88310;-66
2022/12/02 13:37:48;;;;;;;9.57;8.57;;;22.50;84.90;;;;;;6204958;28;89253;-67
2022/12/02 13:40:52;;;;;;;10.68;9.40;;;22.50;84.90;;;;;;6204736;28;89230;-67
2022/12/02 13:43:54;;;;;;;9.75;8.82;;;22.50;84.90;;;;;;6204118;28;89976;-67
2022/12/02 13:46:56;;;;;;;9.80;8.80;;;22.50;84.90;;;;;;6204928;28;89243;-67
2022/12/02 13:49:58;;;;;;;9.73;8.73;;;22.50;84.90;;;;;;6191765;28;89164;-67
2022/12/02 13:53:00;;;;;;;10.30;9.30;;;22.50;84.90;;;;;;6196892;28;89600;-67
2022/12/02 13:56:03;;;;;;;9.75;8.75;;;22.50;84.90;;;;;;6199618;28;89118;-67
2022/12/02 13:59:05;;;;;;;9.70;8.80;;;22.50;84.80;;;;;;6216620;28;89182;-67
2022/12/02 14:02:09;;;;;;;9.48;8.57;;;22.50;84.70;;;;;;6191417;28;87925;-67
2022/12/02 14:05:11;;;;;;;10.02;8.82;;;22.50;84.80;;;;;;6198718;28;88856;-67
2022/12/02 14:08:13;;;;;;;9.98;8.48;;;22.50;84.70;;;;;;6198194;28;89010;-67
2022/12/02 14:11:16;;;;;;;8.93;8.13;;;22.50;84.70;;;;;;6191088;28;89209;-67
2022/12/02 14:14:19;;;;;;;9.15;8.25;;;22.50;84.70;;;;;;6207858;28;91628;-67
2022/12/02 14:17:21;;;;;;;9.63;8.65;;;22.50;84.70;;;;;;6188496;28;89073;-67
2022/12/02 14:20:23;;;;;;;9.38;8.25;;;22.50;85.50;;;;;;6189144;28;89956;-67
2022/12/02 14:23:25;;;;;;;9.27;8.38;;;22.50;84.60;;;;;;6192421;28;89215;-67
2022/12/02 14:26:28;;;;;;;9.88;8.88;;;22.60;84.70;;;;;;6201380;28;90183;-66
2022/12/02 14:29:30;;;;;;;8.88;8.00;;;22.50;84.50;;;;;;6198647;28;89502;-67
2022/12/02 14:32:32;;;;;;;9.15;8.32;;;22.50;84.50;;;;;;6193199;28;89126;-67
2022/12/02 14:35:34;;;;;;;8.40;7.60;;;22.60;84.60;;;;;;6210501;28;88889;-67
2022/12/02 14:38:36;;;;;;;9.10;8.20;;;22.60;84.60;;;;;;6203969;28;89091;-67
2022/12/02 14:41:39;;;;;;;9.25;8.35;;;22.60;84.60;;;;;;6200458;28;89256;-65
2022/12/02 14:44:41;;;;;;;9.00;8.10;;;22.60;84.60;;;;;;6199810;28;90333;-65
2022/12/02 14:47:43;;;;;;;9.55;8.55;;;22.60;84.50;;;;;;6198322;28;88120;-65
2022/12/02 14:50:45;;;;;;;8.95;8.05;;;22.60;84.50;;;;;;6198320;28;89108;-65
2022/12/02 14:53:47;;;;;;;9.13;8.23;;;22.60;84.50;;;;;;6193198;28;88159;-65
2022/12/02 14:56:51;;;;;;;8.38;7.57;;;22.60;84.60;;;;;;6190942;28;89133;-65
2022/12/02 14:59:53;;;;;;;9.35;8.45;;;22.60;84.50;;;;;;6207754;28;89551;-65
2022/12/02 15:02:55;;;;;;;9.63;8.57;;;22.60;84.50;;;;;;6207803;28;88080;-65
2022/12/02 15:05:57;;;;;;;8.80;8.00;;;22.60;84.50;;;;;;6200098;28;88524;-65
2022/12/02 15:08:59;;;;;;;8.30;7.50;;;22.60;84.50;;;;;;6196461;28;89132;-65
2022/12/02 15:12:02;;;;;;;8.80;8.00;;;22.60;84.50;;;;;;6207619;28;89241;-67
2022/12/02 15:15:06;;;;;;;9.10;8.18;;;22.60;84.50;;;;;;6206828;28;90134;-67
2022/12/02 15:18:08;;;;;;;8.68;7.78;;;22.60;84.60;;;;;;6191626;28;89205;-67
2022/12/02 15:21:10;;;;;;;9.13;8.23;;;22.60;84.50;;;;;;6187858;28;88161;-68
2022/12/02 15:24:12;;;;;;;9.32;8.35;;;22.50;84.50;;;;;;6189170;28;89213;-67
2022/12/02 15:27:16;;;;;;;8.88;7.97;;;22.50;84.50;;;;;;6193578;28;89155;-67
2022/12/02 15:30:18;;;;;;;9.00;8.10;;;22.60;84.50;;;;;;6205906;28;90677;-67
2022/12/02 15:33:21;;;;;;;10.38;8.30;;;22.60;84.40;;;;;;6202858;28;89470;-67
2022/12/02 15:36:23;;;;;;;9.38;8.45;;;22.60;84.30;;;;;;6207970;28;87520;-66
2022/12/02 15:39:25;;;;;;;9.38;8.35;;;22.60;84.40;;;;;;6185603;28;89890;-66
2022/12/02 15:42:29;;;;;;;9.45;7.75;;;22.60;84.50;;;;;;6192688;28;89356;-66